Time;durP1;ratioP1;P1;durP2;ratioP2;P2;SDS_P1;SDS_P2;PMS_P1;PMS_P2;Temp;Humidity;BMP_temperature;BMP_pressure;BME280_temperature;BME280_humidity;BME280_pressure;Samples;Min_cycle;Max_cycle;Signal;HPM_P1;HPM_P2
2022/04/21 00:01:21;;;;;;;4.82;3.70;;;12.30;58.90;;;12.02;60.40;100033.44;5028046;28;20128;-77
2022/04/21 00:03:48;;;;;;;4.82;3.40;;;12.10;59.50;;;12.04;58.23;100029.84;5030032;28;20052;-76
2022/04/21 00:06:16;;;;;;;4.68;3.50;;;12.00;59.40;;;11.96;61.08;100033.66;5031161;28;20073;-76
2022/04/21 00:08:43;;;;;;;4.15;3.75;;;12.90;60.80;;;11.90;60.46;100026.81;5031355;28;20091;-74
2022/04/21 00:11:10;;;;;;;6.05;3.45;;;11.90;60.30;;;11.82;61.63;100024.44;5031060;28;20041;-75
2022/04/21 00:13:37;;;;;;;7.25;4.13;;;12.10;61.10;;;11.77;63.44;100023.72;5029688;28;20033;-76
2022/04/21 00:16:04;;;;;;;7.90;4.47;;;11.80;62.00;;;11.77;63.79;100016.69;5029946;28;20052;-76
2022/04/21 00:18:34;;;;;;;4.65;3.10;;;11.80;62.30;;;11.69;65.81;100023.13;5031288;28;20092;-76
2022/04/21 00:21:02;;;;;;;5.28;3.50;;;11.80;62.70;;;11.72;62.37;100023.91;5029454;28;20025;-76
2022/04/21 00:23:29;;;;;;;6.45;4.32;;;11.70;62.80;;;11.74;62.04;100014.16;5031142;28;20458;-76
2022/04/21 00:26:15;;;;;;;9.60;4.65;;;11.70;62.60;;;11.64;64.46;100015.38;5030633;28;20616;-75
2022/04/21 00:28:42;;;;;;;6.60;4.47;;;11.70;64.00;;;11.65;64.20;100013.63;5031275;28;20042;-76
2022/04/21 00:31:09;;;;;;;5.65;4.45;;;11.70;64.20;;;11.59;64.45;100018.16;5030900;28;20056;-75
2022/04/21 00:33:36;;;;;;;6.72;4.03;;;11.60;64.50;;;11.42;69.24;100024.00;5030817;28;20041;-75
2022/04/21 00:36:03;;;;;;;6.63;3.92;;;11.60;65.90;;;11.32;69.22;100022.59;5029558;28;20072;-76
2022/04/21 00:38:30;;;;;;;6.60;4.50;;;11.50;65.70;;;11.32;66.10;100026.09;5031097;28;20037;-76
2022/04/21 00:41:00;;;;;;;6.38;4.55;;;11.40;65.60;;;11.25;66.22;100024.56;5029051;28;20037;-76
2022/04/21 00:43:29;;;;;;;9.75;3.80;;;11.30;65.70;;;11.01;68.99;100024.44;5045853;28;20037;-76
2022/04/21 00:45:57;;;;;;;4.82;4.00;;;11.20;66.50;;;10.95;74.42;100032.50;5031187;28;20044;-75
2022/04/21 00:48:24;;;;;;;7.57;4.50;;;11.80;68.90;;;10.90;76.28;100026.53;5030227;28;20115;-75
2022/04/21 00:50:51;;;;;;;5.55;4.35;;;11.60;70.80;;;10.83;75.49;100024.97;5028697;28;20044;-75
2022/04/21 00:53:19;;;;;;;4.85;4.30;;;11.10;70.60;;;10.78;77.77;100019.88;5028962;28;20049;-76
2022/04/21 00:55:47;;;;;;;5.13;4.18;;;11.00;71.50;;;10.73;79.04;100029.66;5030475;28;20045;-75
2022/04/21 00:58:15;;;;;;;4.60;4.00;;;10.90;72.90;;;10.39;85.39;100015.72;5028384;28;20120;-76
2022/04/21 01:00:42;;;;;;;6.45;4.00;;;11.40;75.20;;;10.32;86.40;100017.66;5027913;28;20050;-75
2022/04/21 01:03:14;;;;;;;7.18;4.07;;;10.90;75.70;;;10.36;84.33;100018.41;5029319;28;20049;-75
2022/04/21 01:05:43;;;;;;;5.40;4.20;;;10.60;76.10;;;10.23;89.76;100020.56;5029163;28;20052;-75
2022/04/21 01:08:11;;;;;;;5.40;4.22;;;9.40;77.30;;;10.22;90.26;100018.84;5029368;28;20095;-76
2022/04/21 01:10:42;;;;;;;5.43;3.95;;;10.40;78.70;;;10.17;90.51;100018.94;5028743;28;20148;-77
2022/04/21 01:13:11;;;;;;;5.32;4.28;;;10.30;79.10;;;10.13;91.76;100014.69;5028492;28;20494;-76
2022/04/21 01:15:41;;;;;;;5.55;4.05;;;10.30;80.10;;;10.10;90.37;100021.78;5029582;28;20050;-76
2022/04/21 01:18:11;;;;;;;7.93;4.55;;;10.30;80.70;;;10.19;87.36;100022.41;5027524;28;20053;-76
2022/04/21 01:20:38;;;;;;;;;;;10.20;80.10;;;10.20;88.44;100025.91;5029031;28;20045;-76
2022/04/21 01:23:05;;;;;;;6.30;4.75;;;10.20;81.00;;;10.21;87.35;100022.38;5029507;28;19944;-76
2022/04/21 01:25:40;;;;;;;4.78;4.30;;;10.40;81.00;;;10.31;85.02;100017.72;5027839;28;20054;-76
2022/04/21 01:28:12;;;;;;;5.25;4.47;;;10.30;80.50;;;10.29;85.18;100015.09;5028044;28;20055;-76
2022/04/21 01:30:39;;;;;;;5.65;4.47;;;10.30;81.30;;;10.28;86.81;100008.13;5027683;28;20124;-76
2022/04/21 01:33:08;;;;;;;6.32;4.55;;;9.60;81.90;;;10.30;88.45;100015.97;5029596;28;20041;-76
2022/04/21 01:35:38;;;;;;;5.28;4.22;;;10.40;83.20;;;10.27;88.43;100006.41;5011776;28;20394;-76
2022/04/21 01:41:09;;;;;;;6.10;4.60;;;10.40;82.20;;;10.33;87.11;100002.75;5027619;28;20041;-76
2022/04/21 01:43:43;;;;;;;6.63;4.85;;;10.30;82.60;;;10.33;90.72;100002.75;5029322;28;20037;-75
2022/04/21 01:46:11;;;;;;;8.90;5.55;;;10.40;85.10;;;10.28;87.82;99994.13;5012280;28;20488;-76
2022/04/21 01:48:38;;;;;;;6.43;4.50;;;10.40;83.90;;;10.26;90.04;99995.94;5028117;28;20100;-75
2022/04/21 01:51:05;;;;;;;7.35;4.88;;;10.90;84.60;;;10.25;89.66;99997.69;5028231;28;20394;-76
2022/04/21 01:53:32;;;;;;;5.53;4.57;;;10.30;85.20;;;10.23;89.88;99998.66;5032729;28;20042;-76
2022/04/21 01:55:59;;;;;;;7.97;4.85;;;10.30;85.60;;;10.25;91.67;99991.59;5036222;28;20079;-76
2022/04/21 01:58:26;;;;;;;7.57;5.65;;;10.30;86.40;;;10.28;89.64;99991.50;5035748;28;20060;-75
2022/04/21 02:00:53;;;;;;;5.75;5.13;;;10.30;85.70;;;10.14;92.93;99990.13;5046410;28;20119;-75
2022/04/21 02:03:20;;;;;;;5.97;4.72;;;10.20;86.20;;;10.21;87.77;99989.03;5036073;28;20048;-76
2022/04/21 02:05:47;;;;;;;7.90;5.07;;;10.40;84.80;;;10.13;90.30;99995.41;5027759;28;20076;-75
2022/04/21 02:08:15;;;;;;;5.22;4.72;;;10.30;85.50;;;10.21;87.27;99996.06;5027322;28;20053;-76
2022/04/21 02:10:42;;;;;;;5.40;4.85;;;10.20;84.30;;;10.27;82.39;99995.88;5026830;28;20041;-75
2022/04/21 02:13:10;;;;;;;5.22;4.55;;;10.20;83.80;;;10.26;84.50;99990.69;5029009;28;20056;-75
2022/04/21 02:15:37;;;;;;;6.07;5.30;;;10.90;84.50;;;10.21;88.60;99996.06;5028649;28;20045;-76
2022/04/21 02:18:04;;;;;;;7.80;4.97;;;10.20;85.00;;;10.17;89.08;99987.41;5028574;28;20048;-76
2022/04/21 02:20:31;;;;;;;8.65;4.65;;;10.20;85.30;;;10.12;86.01;99988.44;5028275;28;20132;-76
2022/04/21 02:22:58;;;;;;;4.90;4.38;;;10.20;84.80;;;10.14;89.00;99991.88;5028486;28;20521;-75
2022/04/21 02:25:25;;;;;;;5.57;4.95;;;10.20;85.20;;;10.10;89.39;99985.88;5027790;28;20053;-76
2022/04/21 02:27:52;;;;;;;5.80;5.20;;;10.20;85.70;;;10.07;91.60;99984.19;5028092;28;20033;-76
2022/04/21 02:30:20;;;;;;;7.63;5.57;;;10.20;86.30;;;10.11;87.02;99984.09;5026778;28;20116;-75
2022/04/21 02:32:47;;;;;;;8.60;5.65;;;8.70;84.50;;;10.00;89.63;99982.63;5027200;28;20052;-76
2022/04/21 02:35:16;;;;;;;6.75;5.22;;;10.20;86.10;;;10.01;89.19;99972.97;5028063;28;20037;-76
2022/04/21 02:37:46;;;;;;;6.05;5.45;;;10.10;85.50;;;9.98;88.23;99973.91;5026891;28;20045;-76
2022/04/21 02:40:14;;;;;;;6.03;5.30;;;10.60;85.80;;;9.96;90.58;99970.47;5026637;28;20052;-76
2022/04/21 02:42:42;;;;;;;7.75;6.40;;;10.20;86.00;;;9.82;94.40;99976.13;5010480;28;20099;-76
2022/04/21 02:45:12;;;;;;;6.28;5.60;;;10.00;86.60;;;9.80;95.95;99975.28;5026992;28;20449;-76
2022/04/21 02:47:41;;;;;;;6.90;6.20;;;10.20;87.30;;;9.73;94.39;99976.34;5028094;28;20684;-76
2022/04/21 02:50:09;;;;;;;5.93;5.32;;;9.90;87.30;;;9.60;95.89;99974.06;5025485;28;20467;-76
2022/04/21 02:52:37;;;;;;;5.55;4.97;;;9.80;87.70;;;9.54;96.20;99968.97;5026302;28;20455;-75
2022/04/21 02:57:52;;;;;;;6.05;4.95;;;9.70;88.50;;;9.48;95.36;99966.50;5026881;28;20417;-76
2022/04/21 03:00:19;;;;;;;5.88;4.95;;;9.60;88.10;;;9.32;98.52;99969.53;5026379;28;20049;-76
2022/04/21 03:02:46;;;;;;;6.07;4.90;;;9.70;88.90;;;9.26;99.63;99977.53;5029297;28;20046;-75
2022/04/21 03:05:14;;;;;;;5.38;4.88;;;9.50;89.30;;;9.13;100.00;99978.72;5027003;28;20128;-76
2022/04/21 03:07:41;;;;;;;7.38;5.13;;;9.40;89.60;;;8.95;100.00;99975.66;5027648;28;20042;-75
2022/04/21 03:10:08;;;;;;;9.23;5.28;;;9.30;89.60;;;8.94;100.00;99973.94;5027505;28;20037;-75
2022/04/21 03:12:36;;;;;;;8.43;5.13;;;9.20;90.00;;;8.82;100.00;99975.09;5027034;28;20045;-76
2022/04/21 03:15:03;;;;;;;6.45;5.30;;;10.10;90.80;;;8.72;100.00;99979.69;5026615;28;20046;-75
2022/04/21 03:17:30;;;;;;;6.55;4.05;;;9.00;90.40;;;8.75;100.00;99981.38;5027959;28;20052;-76
2022/04/21 03:19:57;;;;;;;6.47;5.20;;;9.70;90.80;;;8.61;100.00;99974.69;5027334;28;20048;-75
2022/04/21 03:25:10;;;;;;;6.85;5.65;;;8.90;91.10;;;8.54;100.00;99973.09;5027949;28;20052;-76
2022/04/21 03:27:37;;;;;;;6.07;4.70;;;8.70;91.40;;;8.42;100.00;99971.56;5007838;28;20410;-75
2022/04/21 03:30:08;;;;;;;6.07;4.95;;;8.70;91.50;;;8.48;100.00;99973.19;5039237;28;20048;-76
2022/04/21 03:32:39;;;;;;;5.38;4.85;;;8.70;91.40;;;8.44;100.00;99969.75;5023497;28;20042;-75
2022/04/21 03:35:06;;;;;;;5.40;4.90;;;8.60;91.60;;;8.35;100.00;99969.94;5039261;28;20046;-76
2022/04/21 03:37:33;;;;;;;6.10;5.05;;;8.60;91.40;;;8.28;100.00;99965.75;5010707;28;20120;-75
2022/04/21 03:40:03;;;;;;;5.90;5.20;;;8.60;91.10;;;8.15;100.00;99973.84;5011494;28;20052;-76
2022/04/21 03:42:31;;;;;;;7.20;4.93;;;8.70;91.50;;;7.95;100.00;99969.00;5043824;28;20120;-75
2022/04/21 03:44:59;;;;;;;6.13;5.00;;;8.60;91.70;;;7.95;100.00;99964.66;5012312;28;20119;-75
2022/04/21 03:47:26;;;;;;;5.85;5.25;;;8.40;92.00;;;7.97;100.00;99967.25;5012123;28;20475;-75
2022/04/21 03:49:53;;;;;;;8.98;5.55;;;8.30;92.10;;;7.99;100.00;99964.59;5043059;28;20049;-76
2022/04/21 03:52:20;;;;;;;7.03;5.07;;;8.20;92.30;;;8.04;100.00;99967.97;5011887;28;20401;-76
2022/04/21 03:54:47;;;;;;;5.97;5.38;;;8.20;92.40;;;7.88;100.00;99963.06;5043422;28;20852;-76
2022/04/21 03:57:14;;;;;;;6.05;5.45;;;8.20;92.80;;;8.00;100.00;99977.66;5027141;28;20045;-76
2022/04/21 03:59:42;;;;;;;5.40;4.90;;;9.40;92.90;;;7.98;100.00;99971.59;5030130;28;20060;-76
2022/04/21 04:02:09;;;;;;;6.18;5.53;;;8.10;92.80;;;8.06;100.00;99966.19;5027786;28;20418;-76
2022/04/21 04:04:37;;;;;;;6.10;5.47;;;9.10;93.00;;;8.01;100.00;99976.78;5045746;28;20049;-74
2022/04/21 04:12:38;;;;;;;6.90;6.20;;;8.10;92.90;;;7.87;100.00;99963.06;5029891;28;20046;-74
2022/04/21 04:15:08;;;;;;;8.25;5.90;;;8.10;92.80;;;7.89;100.00;99972.63;5029890;28;20117;-73
2022/04/21 04:17:36;;;;;;;8.00;7.20;;;8.00;92.90;;;7.98;100.00;99968.97;5039083;28;20068;-73
2022/04/21 04:20:05;;;;;;;7.65;6.25;;;8.10;93.00;;;8.01;100.00;99960.16;5031038;28;20513;-74
2022/04/21 04:22:42;;;;;;;8.25;6.53;;;8.10;93.20;;;7.95;100.00;99966.38;5031136;28;20033;-74
2022/04/21 04:25:10;;;;;;;8.25;6.32;;;8.10;93.50;;;7.98;100.00;99974.22;5014206;28;20080;-74
2022/04/21 04:27:37;;;;;;;6.82;6.10;;;8.10;93.00;;;8.09;100.00;99979.25;5013286;28;20065;-74
2022/04/21 04:30:07;;;;;;;7.22;6.53;;;8.10;92.80;;;8.02;100.00;99973.25;5031007;28;20116;-74
2022/04/21 04:32:35;;;;;;;7.13;5.97;;;8.20;93.10;;;7.98;100.00;99973.34;5029323;28;20096;-74
2022/04/21 04:35:04;;;;;;;6.18;5.57;;;8.10;92.90;;;7.93;100.00;99973.41;5009991;28;20056;-74
2022/04/21 04:37:31;;;;;;;7.15;6.15;;;8.20;93.30;;;7.63;100.00;99984.44;5012739;28;20074;-74
2022/04/21 04:39:59;;;;;;;8.52;6.47;;;8.10;93.30;;;7.52;100.00;99982.03;5030387;28;20049;-74
2022/04/21 04:42:28;;;;;;;9.40;6.32;;;8.00;93.50;;;7.52;100.00;99983.78;5029167;28;20053;-74
2022/04/21 04:47:41;;;;;;;9.55;6.93;;;7.80;93.70;;;7.61;100.00;99980.13;5015157;28;20046;-76
2022/04/21 04:50:09;;;;;;;8.20;6.03;;;7.80;93.60;;;7.80;100.00;99976.28;5012327;28;20746;-77
2022/04/21 04:52:37;;;;;;;10.38;6.65;;;7.80;94.20;;;7.80;100.00;99980.66;5013184;28;20076;-76
2022/04/21 04:55:07;;;;;;;7.55;6.38;;;9.00;94.50;;;7.76;100.00;99981.63;5029524;28;20049;-77
2022/04/21 04:57:34;;;;;;;10.20;8.02;;;7.90;94.00;;;7.71;100.00;99986.06;5026286;28;20046;-78
2022/04/21 05:00:07;;;;;;;7.60;6.05;;;7.90;94.10;;;7.76;100.00;99981.63;5013255;28;20053;-74
2022/04/21 05:02:34;;;;;;;9.10;6.80;;;7.90;93.90;;;7.65;100.00;99990.53;5024208;28;20045;-74
2022/04/21 05:05:02;;;;;;;7.50;6.65;;;7.90;94.30;;;7.76;100.00;99986.84;5030136;28;20041;-74
2022/04/21 05:07:29;;;;;;;8.25;6.95;;;8.10;94.50;;;7.69;100.00;99982.59;5030153;28;20052;-74
2022/04/21 05:09:56;;;;;;;7.65;6.82;;;7.90;94.60;;;7.68;100.00;99980.88;5030036;28;20037;-74
2022/04/21 05:12:23;;;;;;;7.78;6.97;;;7.90;94.70;;;7.66;100.00;99986.16;5029082;28;20042;-74
2022/04/21 05:14:52;;;;;;;7.43;6.72;;;7.90;94.90;;;7.70;100.00;99981.72;5013167;28;20045;-76
2022/04/21 05:17:19;;;;;;;8.13;6.32;;;7.90;94.60;;;7.80;100.00;99985.91;5030255;28;20490;-76
2022/04/21 05:20:07;;;;;;;7.22;6.53;;;7.90;94.10;;;7.79;100.00;99978.94;5042517;28;20033;-76
2022/04/21 05:22:39;;;;;;;7.85;6.93;;;7.90;94.10;;;7.82;100.00;99971.00;5028834;28;20072;-76
2022/04/21 05:25:10;;;;;;;8.98;7.43;;;8.00;94.60;;;7.84;100.00;99979.69;5028676;28;20045;-76
2022/04/21 05:27:38;;;;;;;8.65;7.28;;;8.00;94.70;;;7.80;100.00;99975.41;5029827;28;20045;-77
2022/04/21 05:32:55;;;;;;;8.93;7.00;;;8.10;94.50;;;7.93;100.00;99965.56;5032752;28;20049;-76
2022/04/21 05:35:23;;;;;;;9.85;7.72;;;8.10;94.10;;;8.02;100.00;99972.38;5013817;28;20162;-77
2022/04/21 05:37:50;;;;;;;7.93;7.13;;;8.10;94.20;;;8.17;100.00;99969.44;5028747;28;20498;-76
2022/04/21 05:40:18;;;;;;;9.93;7.50;;;8.20;94.20;;;8.26;100.00;99959.69;5029471;28;20128;-76
2022/04/21 05:42:53;;;;;;;8.27;7.43;;;8.30;94.00;;;8.35;100.00;99960.34;5029911;28;20044;-76
2022/04/21 05:45:21;;;;;;;9.07;8.18;;;8.30;94.30;;;8.47;100.00;99966.22;5029134;28;20075;-76
2022/04/21 05:47:49;;;;;;;9.95;7.05;;;8.40;94.40;;;8.56;100.00;99959.94;5012212;28;20556;-76
2022/04/21 05:50:16;;;;;;;10.00;6.90;;;8.40;94.40;;;8.68;100.00;99964.94;5012069;28;20516;-76
2022/04/21 05:52:46;;;;;;;8.70;6.93;;;8.60;94.20;;;8.79;100.00;99962.91;5011697;28;20124;-77
2022/04/21 05:55:16;;;;;;;7.90;7.10;;;8.70;94.60;;;8.92;100.00;99962.63;5029802;28;20041;-77
2022/04/21 05:57:44;;;;;;;;;;;8.80;94.40;;;9.04;100.00;99954.44;5029278;28;20326;-76
2022/04/21 06:00:11;;;;;;;10.85;7.53;;;9.20;94.40;;;9.19;100.00;99966.31;5028101;28;19921;-74
2022/04/21 06:02:38;;;;;;;10.65;7.78;;;9.10;94.30;;;9.32;100.00;99958.16;5027597;28;20049;-75
2022/04/21 06:05:06;;;;;;;10.50;8.43;;;9.10;94.20;;;9.40;100.00;99963.19;5029745;28;20073;-75
2022/04/21 06:07:33;;;;;;;9.55;8.07;;;9.20;94.20;;;9.49;100.00;99962.97;5044132;28;20041;-76
2022/04/21 06:10:02;;;;;;;12.40;7.13;;;9.40;94.30;;;9.56;100.00;99948.78;5028867;28;20096;-75
2022/04/21 06:12:29;;;;;;;10.27;8.07;;;9.70;93.80;;;9.64;100.00;99949.44;5029376;28;20425;-75
2022/04/21 06:14:56;;;;;;;8.63;6.95;;;10.30;93.80;;;9.77;100.00;99947.34;5029020;28;20046;-75
2022/04/21 06:17:24;;;;;;;10.90;8.00;;;10.00;93.90;;;9.92;100.00;99953.06;5029162;28;20077;-75
2022/04/21 06:19:51;;;;;;;9.90;7.88;;;9.80;93.90;;;9.99;100.00;99948.50;5028696;28;20060;-74
2022/04/21 06:22:18;;;;;;;9.23;7.53;;;9.80;93.60;;;10.02;100.00;99948.41;5029246;28;20047;-74
2022/04/21 06:24:45;;;;;;;8.75;7.85;;;9.90;93.60;;;10.10;100.00;99943.81;5028383;28;20033;-74
2022/04/21 06:27:12;;;;;;;8.13;7.32;;;10.00;93.70;;;10.21;100.00;99941.72;5011589;28;20052;-74
2022/04/21 06:29:39;;;;;;;8.57;7.72;;;10.10;93.60;;;10.26;100.00;99940.72;5028455;28;20037;-74
2022/04/21 06:32:06;;;;;;;8.63;7.60;;;10.10;93.20;;;10.38;100.00;99945.63;5028300;28;20044;-75
2022/04/21 06:34:34;;;;;;;9.98;7.68;;;10.30;93.10;;;10.47;100.00;99948.00;5030056;28;20073;-75
2022/04/21 06:37:01;;;;;;;9.45;8.48;;;10.30;93.20;;;10.54;100.00;99946.03;5029362;28;20035;-74
2022/04/21 06:39:31;;;;;;;14.00;7.30;;;10.40;93.10;;;10.65;100.00;99940.44;5026912;28;20049;-75
2022/04/21 06:41:58;;;;;;;8.75;7.93;;;10.40;93.10;;;10.68;100.00;99942.97;5027891;28;20084;-76
2022/04/21 06:49:57;;;;;;;9.68;8.60;;;10.70;92.80;;;10.96;100.00;99928.09;5026188;28;20566;-76
2022/04/21 06:52:25;;;;;;;8.57;7.78;;;10.80;92.70;;;11.04;99.31;99941.84;5027314;28;20645;-77
2022/04/21 06:54:52;;;;;;;11.40;8.43;;;11.30;92.50;;;11.07;96.21;99932.09;5028888;28;20049;-77
2022/04/21 06:57:21;;;;;;;10.63;8.60;;;12.20;92.50;;;11.10;97.82;99935.53;5027237;28;20088;-76
2022/04/21 06:59:48;;;;;;;10.05;9.00;;;11.00;92.10;;;11.13;98.07;99932.78;5027984;28;20045;-77
2022/04/21 07:02:16;;;;;;;8.50;7.68;;;11.00;92.30;;;11.26;96.51;99936.72;5026853;28;20051;-77
2022/04/21 07:04:43;;;;;;;10.35;9.23;;;11.10;92.20;;;11.38;95.04;99929.34;5024977;28;20049;-77
2022/04/21 07:07:10;;;;;;;10.65;8.52;;;11.20;92.00;;;11.41;94.55;99927.47;5028087;28;20048;-77
2022/04/21 07:09:37;;;;;;;9.38;8.48;;;11.20;92.00;;;11.47;94.43;99923.72;5027076;28;20257;-77
2022/04/21 07:12:05;;;;;;;10.18;8.57;;;11.60;92.00;;;11.49;94.95;99924.56;5028356;28;20052;-76
2022/04/21 07:14:32;;;;;;;10.05;8.30;;;11.40;91.90;;;11.55;92.57;99936.63;5032595;28;20125;-76
2022/04/21 07:16:59;;;;;;;9.10;7.82;;;11.40;91.60;;;11.61;92.15;99928.53;5032546;28;20112;-76
2022/04/21 07:19:26;;;;;;;10.30;8.98;;;11.50;91.60;;;11.65;90.75;99926.66;5032411;28;20072;-76
2022/04/21 07:21:53;;;;;;;9.20;8.27;;;12.20;91.60;;;11.74;91.40;99928.94;5030850;28;20053;-77
2022/04/21 07:24:20;;;;;;;10.35;9.25;;;11.60;91.40;;;11.82;88.45;99926.91;5014656;28;20057;-76
2022/04/21 07:26:47;;;;;;;11.43;8.68;;;11.90;91.30;;;11.91;87.61;99928.34;5030975;28;20046;-76
2022/04/21 07:29:14;;;;;;;9.57;7.70;;;11.60;91.20;;;12.02;87.74;99927.97;5030279;28;20144;-77
2022/04/21 07:31:41;;;;;;;9.02;7.43;;;11.80;91.20;;;12.14;87.39;99924.00;5030980;28;20190;-76
2022/04/21 07:34:09;;;;;;;9.75;7.22;;;11.90;91.20;;;12.20;84.85;99919.38;5030716;28;20053;-77
2022/04/21 07:36:37;;;;;;;7.70;6.90;;;12.00;90.90;;;12.28;82.42;99921.72;5030659;28;20053;-77
2022/04/21 07:39:04;;;;;;;8.05;6.68;;;12.00;90.70;;;12.34;81.21;99918.84;5046635;28;20053;-77
2022/04/21 07:41:34;;;;;;;6.53;5.82;;;13.40;90.80;;;12.50;81.71;99926.19;5014244;28;20144;-77
2022/04/21 07:44:01;;;;;;;7.00;5.80;;;12.20;90.50;;;12.48;78.15;99920.94;5032006;28;20050;-76
2022/04/21 07:46:28;;;;;;;6.70;5.45;;;12.30;90.10;;;12.61;78.66;99923.09;5030826;28;20053;-76
2022/04/21 07:51:41;;;;;;;7.13;5.75;;;12.40;90.20;;;12.77;76.62;99923.34;5031014;28;20485;-76
2022/04/21 07:54:08;;;;;;;6.05;5.07;;;12.50;89.70;;;12.86;74.34;99922.97;5030456;28;20037;-76
2022/04/21 07:56:36;;;;;;;6.22;5.65;;;12.80;89.20;;;12.93;72.81;99923.59;5029347;28;20049;-76
2022/04/21 07:59:03;;;;;;;5.40;4.90;;;12.70;88.50;;;12.98;71.71;99908.41;5046059;28;20092;-76
2022/04/21 08:01:30;;;;;;;6.70;5.18;;;12.80;88.00;;;13.06;71.23;99916.00;5031999;28;20507;-77
2022/04/21 08:04:03;;;;;;;5.45;4.95;;;13.10;87.90;;;13.05;69.12;99901.09;5030420;28;20045;-77
2022/04/21 08:06:30;;;;;;;5.93;5.32;;;12.90;87.30;;;13.16;69.11;99905.91;5029895;28;20147;-77
2022/04/21 08:08:57;;;;;;;5.13;4.63;;;12.90;87.20;;;13.21;68.33;99905.72;5029531;28;20037;-77
2022/04/21 08:11:24;;;;;;;7.72;5.25;;;12.90;86.90;;;13.26;68.96;99904.59;5030188;28;20471;-77
2022/04/21 08:13:51;;;;;;;7.63;5.35;;;13.00;86.90;;;13.33;67.66;99902.56;5032087;28;20041;-77
2022/04/21 08:16:18;;;;;;;5.78;5.20;;;13.10;86.60;;;13.40;67.52;99901.38;5041280;28;20081;-78
2022/04/21 08:18:52;;;;;;;5.53;4.97;;;13.20;86.50;;;13.49;68.79;99913.34;5031533;28;20073;-76
2022/04/21 08:21:19;;;;;;;6.70;5.00;;;13.20;86.70;;;13.50;68.00;99901.84;5046968;28;20075;-76
2022/04/21 08:33:16;;;;;;;7.18;5.70;;;13.40;86.50;;;13.80;67.96;99903.22;5030513;28;20050;-76
2022/04/21 08:35:45;;;;;;;9.57;6.07;;;13.50;86.20;;;13.91;67.34;99898.31;5037385;28;20045;-76
2022/04/21 08:38:12;;;;;;;7.72;5.78;;;13.60;86.30;;;13.98;68.21;99897.09;5029011;28;20046;-75
2022/04/21 08:41:03;;;;;;;8.45;5.63;;;13.60;86.30;;;14.10;69.16;99895.66;5029046;28;20052;-75
2022/04/21 08:43:30;;;;;;;7.32;5.45;;;13.90;86.60;;;14.14;66.51;99894.59;5029563;28;20052;-75
2022/04/21 08:45:57;;;;;;;6.45;5.85;;;13.90;85.70;;;14.24;64.74;99897.69;5029132;28;20118;-75
2022/04/21 08:48:25;;;;;;;7.57;6.07;;;14.50;85.60;;;14.30;63.75;99900.03;5030665;28;20055;-76
2022/04/21 08:50:52;;;;;;;7.03;5.63;;;14.00;84.70;;;14.35;63.10;99886.59;5012387;28;20115;-73
2022/04/21 08:53:21;;;;;;;7.80;5.28;;;14.10;84.50;;;14.43;61.72;99896.81;5030225;28;20041;-73
2022/04/21 08:55:49;;;;;;;6.43;5.28;;;14.10;83.90;;;14.46;61.20;99889.59;5029893;28;20585;-74
2022/04/21 08:58:17;;;;;;;5.68;4.63;;;14.10;83.40;;;14.53;59.90;99886.63;5029332;28;20045;-74
2022/04/21 09:00:44;;;;;;;7.18;5.43;;;14.20;83.10;;;14.59;59.92;99892.50;5028977;28;20044;-75
2022/04/21 09:03:14;;;;;;;7.43;5.22;;;14.30;83.10;;;14.67;59.76;99888.59;5029978;28;20065;-74
2022/04/21 09:05:44;;;;;;;5.60;4.70;;;14.30;83.00;;;14.73;59.08;99888.34;5030667;28;20525;-75
2022/04/21 09:08:29;;;;;;;5.47;4.97;;;14.40;82.70;;;14.80;56.96;99888.91;5012791;28;20038;-74
2022/04/21 09:11:07;;;;;;;5.53;5.03;;;14.50;81.70;;;14.80;57.10;99884.44;5026691;28;20532;-74
2022/04/21 09:13:39;;;;;;;5.65;4.65;;;14.60;81.50;;;14.87;56.89;99877.94;5009008;28;20426;-75
2022/04/21 09:16:10;;;;;;;5.20;4.70;;;14.60;81.50;;;14.96;57.17;99878.38;5009317;28;20042;-74
2022/04/21 09:18:39;;;;;;;5.03;4.53;;;14.60;81.40;;;15.06;55.86;99884.06;5008876;28;20100;-73
2022/04/21 09:21:14;;;;;;;5.55;4.70;;;14.70;80.90;;;15.17;56.30;99881.75;5008851;28;20510;-74
2022/04/21 09:23:43;;;;;;;5.15;4.65;;;14.70;81.20;;;15.39;56.63;99888.63;5016722;28;20042;-73
2022/04/21 09:26:20;;;;;;;6.70;5.68;;;14.90;81.60;;;15.67;55.75;99882.72;5028444;28;20037;-74
2022/04/21 09:28:55;;;;;;;6.07;5.15;;;15.10;81.30;;;15.77;53.73;99874.28;5027338;28;20033;-73
2022/04/21 09:31:27;;;;;;;7.43;5.20;;;15.30;80.30;;;15.86;53.35;99876.41;5028586;28;20462;-74
2022/04/21 09:33:55;;;;;;;5.47;4.55;;;15.40;79.50;;;15.96;52.90;99882.09;5029446;28;20050;-74
2022/04/21 09:36:22;;;;;;;5.88;5.18;;;15.60;79.50;;;16.09;51.45;99872.53;5012454;28;20099;-73
2022/04/21 09:39:03;;;;;;;5.15;4.72;;;15.70;78.30;;;16.07;51.37;99871.78;5029889;28;20438;-74
2022/04/21 09:41:30;;;;;;;;;;;15.80;78.00;;;16.36;51.17;99868.44;5030251;28;20139;-73
2022/04/21 09:47:06;;;;;;;3.15;2.80;;;16.00;76.20;;;16.57;47.23;99863.69;5018668;28;20079;-74
2022/04/21 09:49:42;;;;;;;4.75;3.50;;;16.20;74.50;;;16.82;46.34;99851.66;5028202;28;20049;-74
2022/04/21 09:52:09;;;;;;;3.97;3.10;;;16.30;74.00;;;17.07;45.88;99859.06;5028356;28;20039;-74
2022/04/21 09:54:39;;;;;;;3.50;3.20;;;16.50;73.30;;;17.18;44.47;99858.44;5028255;28;20041;-74
2022/04/21 09:57:07;;;;;;;5.13;3.80;;;16.80;71.70;;;17.12;44.40;99851.69;5029340;28;20120;-76
2022/04/21 09:59:35;;;;;;;3.65;2.95;;;16.90;71.00;;;17.22;43.98;99838.69;5027787;28;20045;-77
2022/04/21 10:02:07;;;;;;;3.10;2.75;;;17.00;70.50;;;17.59;44.29;99846.22;5028363;28;20464;-77
2022/04/21 10:04:54;;;;;;;3.28;2.97;;;17.10;70.90;;;17.74;43.90;99844.44;5034847;28;20409;-76
2022/04/21 10:07:26;;;;;;;4.22;2.85;;;17.30;70.30;;;17.92;42.61;99833.56;5027852;28;20406;-78
2022/04/21 10:09:54;;;;;;;4.05;2.85;;;17.50;69.10;;;18.13;42.90;99836.72;4999705;28;20807;-77
2022/04/21 10:12:22;;;;;;;3.78;2.75;;;17.70;69.10;;;18.16;40.96;99828.53;5015131;28;20818;-78
2022/04/21 10:14:51;;;;;;;4.15;3.20;;;17.80;66.50;;;18.37;40.53;99830.72;5009304;28;20046;-76
2022/04/21 10:17:21;;;;;;;3.60;2.80;;;18.00;65.80;;;18.60;40.41;99839.88;5034848;28;20029;-76
2022/04/21 10:19:50;;;;;;;;;;;18.20;65.60;;;18.68;40.02;99828.72;5030225;28;20565;-78
2022/04/21 10:22:26;;;;;;;3.20;2.90;;;18.30;64.90;;;18.48;40.84;99830.88;5014507;28;20012;-78
2022/04/21 10:25:00;;;;;;;4.00;3.60;;;18.40;64.80;;;18.55;40.81;99826.84;5032606;28;20056;-78
2022/04/21 10:27:42;;;;;;;4.07;3.60;;;18.40;64.50;;;18.78;41.02;99823.59;5029789;28;20055;-78
2022/04/21 10:30:20;;;;;;;5.47;3.35;;;18.40;64.70;;;18.91;40.53;99805.00;5030394;28;20447;-77
2022/04/21 10:32:59;;;;;;;6.25;3.40;;;18.70;64.50;;;18.87;40.78;99809.69;5028747;28;20115;-73
2022/04/21 10:35:29;;;;;;;6.43;3.80;;;18.70;63.90;;;18.80;40.55;99811.03;5043860;28;20453;-74
2022/04/21 10:38:14;;;;;;;6.05;3.63;;;18.70;62.80;;;18.95;40.07;99799.31;5028331;28;20079;-75
2022/04/21 10:41:07;;;;;;;4.50;3.08;;;18.70;62.80;;;19.01;40.11;99799.91;5028529;28;20053;-74
2022/04/21 10:43:53;;;;;;;3.95;2.75;;;18.70;62.30;;;19.02;39.54;99798.97;5028274;28;20175;-75
2022/04/21 10:46:31;;;;;;;5.63;3.47;;;18.70;61.60;;;18.91;39.54;99789.84;5028116;28;20691;-75
2022/04/21 10:48:59;;;;;;;3.30;2.50;;;18.80;61.20;;;18.99;40.58;99795.56;5027513;28;20045;-75
2022/04/21 10:51:41;;;;;;;3.65;2.67;;;18.70;62.40;;;19.31;39.01;99783.59;5010869;28;20043;-75
2022/04/21 10:57:13;;;;;;;3.58;2.67;;;19.00;59.50;;;19.50;37.89;99772.50;5028309;28;20048;-73
2022/04/21 11:00:09;;;;;;;3.28;2.58;;;19.10;59.60;;;19.64;37.45;99759.97;5007353;28;20050;-74
2022/04/21 11:02:44;;;;;;;3.55;2.45;;;19.20;59.00;;;19.67;37.88;99759.75;5022979;28;20442;-74
2022/04/21 11:05:31;;;;;;;3.03;2.75;;;19.20;59.00;;;19.62;37.49;99759.25;5021521;28;20048;-74
2022/04/21 11:08:01;;;;;;;3.95;3.03;;;19.30;58.40;;;19.60;37.84;99759.34;5008880;28;20056;-76
2022/04/21 11:10:42;;;;;;;3.60;2.78;;;19.30;58.50;;;19.65;37.77;99751.84;5007487;28;20073;-76
2022/04/21 11:13:17;;;;;;;3.20;2.70;;;19.30;58.70;;;19.82;37.59;99744.44;5028788;28;20477;-74